sensor_id;sensor_type;location;lat;lon;timestamp;temperature;humidity
949;DHT22;461;51.436;7.312;2023-04-05T03:12:05;2.50;99.90
949;DHT22;461;51.436;7.312;2023-04-05T03:15:13;2.70;99.90
949;DHT22;461;51.436;7.312;2023-04-05T03:20:44;2.80;99.90
949;DHT22;461;51.436;7.312;2023-04-05T03:33:03;2.70;99.90
949;DHT22;461;51.436;7.312;2023-04-05T06:26:22;4.40;99.90
949;DHT22;461;51.436;7.312;2023-04-05T06:29:02;5.90;99.90
949;DHT22;461;51.436;7.312;2023-04-05T16:04:20;9.30;99.90
949;DHT22;461;51.436;7.312;2023-04-05T16:09:13;14.20;37.70
949;DHT22;461;51.436;7.312;2023-04-05T16:11:39;13.80;38.20
949;DHT22;461;51.436;7.312;2023-04-05T16:14:05;13.60;38.30
949;DHT22;461;51.436;7.312;2023-04-05T16:16:31;13.60;38.10
949;DHT22;461;51.436;7.312;2023-04-05T16:18:56;13.70;37.20
949;DHT22;461;51.436;7.312;2023-04-05T16:21:24;13.60;37.80
949;DHT22;461;51.436;7.312;2023-04-05T16:23:52;13.40;38.80
949;DHT22;461;51.436;7.312;2023-04-05T16:26:17;13.40;38.70
949;DHT22;461;51.436;7.312;2023-04-05T16:28:47;13.50;38.00
949;DHT22;461;51.436;7.312;2023-04-05T16:31:13;13.50;38.30
949;DHT22;461;51.436;7.312;2023-04-05T16:33:39;13.50;39.10
949;DHT22;461;51.436;7.312;2023-04-05T16:36:05;13.40;39.40
949;DHT22;461;51.436;7.312;2023-04-05T16:38:31;13.30;38.70
949;DHT22;461;51.436;7.312;2023-04-05T16:40:57;13.30;38.30
949;DHT22;461;51.436;7.312;2023-04-05T16:43:22;13.30;38.30
949;DHT22;461;51.436;7.312;2023-04-05T16:45:48;13.20;37.90
949;DHT22;461;51.436;7.312;2023-04-05T16:48:14;13.20;39.60
949;DHT22;461;51.436;7.312;2023-04-05T16:50:40;13.00;39.70
949;DHT22;461;51.436;7.312;2023-04-05T16:55:32;13.00;39.90
949;DHT22;461;51.436;7.312;2023-04-05T16:57:58;12.80;39.30
949;DHT22;461;51.436;7.312;2023-04-05T17:00:24;12.80;39.70
949;DHT22;461;51.436;7.312;2023-04-05T17:02:49;12.70;40.90
949;DHT22;461;51.436;7.312;2023-04-05T17:05:16;12.70;39.70
949;DHT22;461;51.436;7.312;2023-04-05T17:07:41;12.70;39.40
949;DHT22;461;51.436;7.312;2023-04-05T17:10:08;12.60;39.50
949;DHT22;461;51.436;7.312;2023-04-05T17:12:34;12.60;40.10
949;DHT22;461;51.436;7.312;2023-04-05T17:15:01;12.60;39.20
949;DHT22;461;51.436;7.312;2023-04-05T17:17:27;12.60;40.40
949;DHT22;461;51.436;7.312;2023-04-05T17:19:53;12.70;39.70
949;DHT22;461;51.436;7.312;2023-04-05T17:22:19;12.80;39.40
949;DHT22;461;51.436;7.312;2023-04-05T17:24:48;12.80;40.40
949;DHT22;461;51.436;7.312;2023-04-05T17:27:14;12.70;40.30
949;DHT22;461;51.436;7.312;2023-04-05T17:29:40;12.60;40.60
949;DHT22;461;51.436;7.312;2023-04-05T17:32:06;12.50;42.00
949;DHT22;461;51.436;7.312;2023-04-05T17:34:32;12.40;42.40
949;DHT22;461;51.436;7.312;2023-04-05T17:36:58;12.20;42.90
949;DHT22;461;51.436;7.312;2023-04-05T17:39:24;12.10;43.50
949;DHT22;461;51.436;7.312;2023-04-05T17:41:50;12.00;45.00
949;DHT22;461;51.436;7.312;2023-04-05T17:44:15;11.80;44.50
949;DHT22;461;51.436;7.312;2023-04-05T17:46:41;11.70;44.20
949;DHT22;461;51.436;7.312;2023-04-05T17:49:07;11.70;43.70
949;DHT22;461;51.436;7.312;2023-04-05T17:51:33;11.60;43.50
949;DHT22;461;51.436;7.312;2023-04-05T17:53:59;11.50;44.10
949;DHT22;461;51.436;7.312;2023-04-05T17:56:25;11.30;44.30
949;DHT22;461;51.436;7.312;2023-04-05T17:58:51;11.20;44.00
949;DHT22;461;51.436;7.312;2023-04-05T18:01:17;11.20;44.50
949;DHT22;461;51.436;7.312;2023-04-05T18:08:38;11.20;44.90
949;DHT22;461;51.436;7.312;2023-04-05T18:11:04;11.00;44.90
949;DHT22;461;51.436;7.312;2023-04-05T18:13:30;11.00;44.70
949;DHT22;461;51.436;7.312;2023-04-05T18:15:57;11.00;45.50
949;DHT22;461;51.436;7.312;2023-04-05T18:18:24;11.00;45.30
949;DHT22;461;51.436;7.312;2023-04-05T18:20:52;10.80;45.00
949;DHT22;461;51.436;7.312;2023-04-05T18:23:20;10.80;44.90
949;DHT22;461;51.436;7.312;2023-04-05T18:26:04;10.60;46.20
949;DHT22;461;51.436;7.312;2023-04-05T18:28:43;10.60;45.70
